Time;durP1;ratioP1;P1;durP2;ratioP2;P2;SDS_P1;SDS_P2;PMS_P1;PMS_P2;Temp;Humidity;BMP_temperature;BMP_pressure;BME280_temperature;BME280_humidity;BME280_pressure;Samples;Min_cycle;Max_cycle;Signal;HPM_P1;HPM_P2
2024/03/20 00:00:25;;;;;;;4.93;3.80;;;10.80;99.90;;;;;;5092792;28;20232;-61
2024/03/20 00:02:52;;;;;;;7.80;3.77;;;10.70;99.90;;;;;;5093001;28;20665;-60
2024/03/20 00:05:19;;;;;;;4.83;3.87;;;10.60;99.90;;;;;;5092635;28;20204;-60
2024/03/20 00:07:45;;;;;;;4.90;3.40;;;10.50;99.90;;;;;;5092746;28;20249;-60
2024/03/20 00:10:12;;;;;;;5.57;3.90;;;10.50;99.90;;;;;;5092756;28;20678;-61
2024/03/20 00:12:39;;;;;;;4.80;3.90;;;10.40;99.90;;;;;;5093180;28;20304;-61
2024/03/20 00:15:07;;;;;;;5.63;3.60;;;10.40;99.90;;;;;;5092470;28;20212;-61
2024/03/20 00:17:34;;;;;;;5.10;3.80;;;10.40;99.90;;;;;;5092588;28;20581;-61
2024/03/20 00:20:03;;;;;;;5.07;3.90;;;10.30;99.90;;;;;;5092582;28;20321;-61
2024/03/20 00:22:30;;;;;;;6.13;3.70;;;10.30;99.90;;;;;;5092377;28;20211;-61
2024/03/20 00:24:57;;;;;;;5.47;3.23;;;10.20;99.90;;;;;;5092666;28;20238;-61
2024/03/20 00:27:25;;;;;;;5.63;3.77;;;10.20;99.90;;;;;;5092764;28;20204;-61
2024/03/20 00:29:51;;;;;;;7.00;4.17;;;10.10;99.90;;;;;;5092412;28;20239;-61
2024/03/20 00:32:18;;;;;;;4.13;3.73;;;10.10;99.90;;;;;;5092431;28;20208;-61
2024/03/20 00:34:45;;;;;;;4.70;3.30;;;10.00;99.90;;;;;;5092493;28;20212;-61
2024/03/20 00:37:13;;;;;;;4.10;3.33;;;10.00;99.90;;;;;;5092416;28;20219;-61
2024/03/20 00:39:40;;;;;;;3.47;3.17;;;9.90;99.90;;;;;;5092364;28;20231;-61
2024/03/20 00:42:07;;;;;;;6.63;3.60;;;9.90;99.90;;;;;;5092454;28;20299;-62
2024/03/20 00:44:36;;;;;;;4.23;3.47;;;9.90;99.90;;;;;;5092057;28;20666;-61
2024/03/20 00:47:03;;;;;;;3.50;3.10;;;9.80;99.90;;;;;;5091446;28;20250;-62
2024/03/20 00:49:30;;;;;;;7.23;3.60;;;9.80;99.90;;;;;;5092129;28;20227;-61
2024/03/20 00:51:56;;;;;;;4.90;3.60;;;9.80;99.90;;;;;;5092362;28;20204;-62
2024/03/20 00:54:25;;;;;;;6.03;4.20;;;9.80;99.90;;;;;;5092250;28;20204;-62
2024/03/20 00:56:52;;;;;;;6.97;3.60;;;9.70;99.90;;;;;;5091981;28;20253;-61
2024/03/20 00:59:20;;;;;;;5.20;3.53;;;9.70;99.90;;;;;;5091776;28;20634;-62
2024/03/20 01:01:47;;;;;;;4.60;3.83;;;9.70;99.90;;;;;;5091985;28;20246;-61
2024/03/20 01:04:16;;;;;;;5.03;4.13;;;9.60;99.90;;;;;;5092074;28;20219;-60
2024/03/20 01:06:43;;;;;;;8.60;3.90;;;9.60;99.90;;;;;;5091930;28;20211;-61
2024/03/20 01:09:10;;;;;;;5.77;3.47;;;9.50;99.90;;;;;;5092116;28;20222;-61
2024/03/20 01:11:38;;;;;;;4.90;3.70;;;9.40;99.90;;;;;;5092078;28;20204;-62
2024/03/20 01:14:04;;;;;;;4.87;3.97;;;9.40;99.90;;;;;;5091956;28;20681;-61
2024/03/20 01:16:31;;;;;;;5.67;3.40;;;9.40;99.90;;;;;;5091635;28;20802;-62
2024/03/20 01:18:58;;;;;;;4.27;3.63;;;9.50;99.90;;;;;;5091918;28;20644;-62
2024/03/20 01:21:24;;;;;;;4.17;3.40;;;9.40;99.90;;;;;;5092047;28;20212;-62
2024/03/20 01:23:51;;;;;;;4.93;3.70;;;9.40;99.90;;;;;;5091871;28;20204;-62
2024/03/20 01:26:19;;;;;;;7.30;5.23;;;9.40;99.90;;;;;;5091737;28;20215;-60
2024/03/20 01:28:47;;;;;;;8.27;5.30;;;9.30;99.90;;;;;;5091790;28;20220;-62
2024/03/20 01:31:14;;;;;;;10.07;5.70;;;9.30;99.90;;;;;;5091680;28;20215;-62
2024/03/20 01:33:41;;;;;;;5.60;4.17;;;9.20;99.90;;;;;;5091887;28;20204;-61
2024/03/20 01:36:08;;;;;;;4.17;3.77;;;9.20;99.90;;;;;;5091396;28;20557;-62
2024/03/20 01:38:34;;;;;;;5.30;3.90;;;9.20;99.90;;;;;;5091463;28;20232;-61
2024/03/20 01:41:01;;;;;;;4.87;3.60;;;9.20;99.90;;;;;;5091731;28;20216;-61
2024/03/20 01:43:28;;;;;;;4.63;3.73;;;9.20;99.90;;;;;;5091598;28;20204;-61
2024/03/20 01:45:56;;;;;;;6.87;3.50;;;9.20;99.90;;;;;;5091608;28;20217;-60
2024/03/20 01:48:22;;;;;;;3.80;3.40;;;9.20;99.90;;;;;;5091631;28;20208;-60
2024/03/20 01:50:50;;;;;;;4.30;3.07;;;9.20;99.90;;;;;;5091745;28;20227;-62
2024/03/20 01:53:17;;;;;;;5.93;3.53;;;9.20;99.90;;;;;;5091647;28;20234;-62
2024/03/20 01:55:45;;;;;;;7.53;3.53;;;9.10;99.90;;;;;;5091312;28;20209;-62
2024/03/20 01:58:11;;;;;;;4.17;3.07;;;9.10;99.90;;;;;;5094624;28;20702;-61
2024/03/20 02:00:39;;;;;;;3.57;3.23;;;9.00;99.90;;;;;;5095163;28;20236;-62
2024/03/20 02:03:07;;;;;;;4.57;3.53;;;8.90;99.90;;;;;;5095311;28;20204;-61
2024/03/20 02:05:34;;;;;;;3.73;3.10;;;8.90;99.90;;;;;;5094912;28;20204;-61
2024/03/20 02:08:00;;;;;;;6.73;3.57;;;8.90;99.90;;;;;;5095042;28;20208;-62
2024/03/20 02:10:27;;;;;;;5.30;3.30;;;8.90;99.90;;;;;;5094967;28;20776;-61
2024/03/20 02:13:04;;;;;;;5.33;3.50;;;8.90;99.90;;;;;;5094935;28;20211;-61
2024/03/20 02:15:32;;;;;;;3.90;3.27;;;8.90;99.90;;;;;;5094868;28;20200;-62
2024/03/20 02:17:59;;;;;;;6.43;3.53;;;8.90;99.90;;;;;;5094708;28;20228;-62
2024/03/20 02:20:27;;;;;;;3.93;3.20;;;8.90;99.90;;;;;;5094913;28;20235;-61
2024/03/20 02:22:58;;;;;;;4.70;3.20;;;8.80;99.90;;;;;;5094792;28;20666;-61
2024/03/20 02:25:28;;;;;;;6.20;3.40;;;8.90;99.90;;;;;;5094565;28;20225;-61
2024/03/20 02:27:53;;;;;;;5.67;2.70;;;8.80;99.90;;;;;;5094945;28;20236;-61
2024/03/20 02:30:20;;;;;;;4.43;2.87;;;8.90;99.90;;;;;;5094867;28;20247;-62
2024/03/20 02:32:47;;;;;;;4.03;2.90;;;8.90;99.90;;;;;;5095141;28;20204;-61
2024/03/20 02:35:13;;;;;;;3.53;2.73;;;8.90;99.90;;;;;;5094309;28;20204;-62
2024/03/20 02:37:40;;;;;;;3.43;2.60;;;8.80;99.90;;;;;;5094364;28;20205;-61
2024/03/20 02:40:09;;;;;;;3.53;2.70;;;8.80;99.90;;;;;;5094313;28;20220;-62
2024/03/20 02:42:36;;;;;;;2.90;2.60;;;8.80;99.90;;;;;;5094627;28;20207;-61
2024/03/20 02:45:03;;;;;;;3.03;2.50;;;8.80;99.90;;;;;;5094501;28;20265;-61
2024/03/20 02:47:30;;;;;;;4.13;2.40;;;8.80;99.90;;;;;;5094620;28;20204;-61
2024/03/20 02:49:57;;;;;;;4.03;2.40;;;8.80;99.90;;;;;;5094420;28;20269;-61
2024/03/20 02:52:24;;;;;;;3.97;2.50;;;8.70;99.90;;;;;;5094107;28;20574;-60
2024/03/20 02:54:51;;;;;;;3.53;2.80;;;8.70;99.90;;;;;;5094262;28;20204;-61
2024/03/20 02:57:19;;;;;;;4.90;3.40;;;8.70;99.90;;;;;;5094659;28;20256;-61
2024/03/20 02:59:46;;;;;;;4.63;3.43;;;8.60;99.90;;;;;;5093956;28;20253;-62
2024/03/20 03:02:12;;;;;;;4.50;3.23;;;8.60;99.90;;;;;;5094046;28;20212;-61
2024/03/20 03:04:39;;;;;;;5.13;3.33;;;8.50;99.90;;;;;;5094118;28;20646;-61
2024/03/20 03:07:06;;;;;;;4.93;3.10;;;8.50;99.90;;;;;;5093702;28;20677;-60
2024/03/20 03:09:32;;;;;;;4.40;3.63;;;8.40;99.90;;;;;;5093239;28;20228;-61
2024/03/20 03:11:59;;;;;;;5.00;3.20;;;8.50;99.90;;;;;;5094157;28;20560;-61
2024/03/20 03:14:27;;;;;;;6.03;3.13;;;8.40;99.90;;;;;;5094146;28;20204;-61
2024/03/20 03:16:54;;;;;;;4.37;3.20;;;8.40;99.90;;;;;;5093621;28;20208;-61
2024/03/20 03:19:20;;;;;;;4.23;3.30;;;8.60;99.90;;;;;;5093477;28;20228;-61
2024/03/20 03:21:47;;;;;;;4.70;2.87;;;8.40;99.90;;;;;;5093728;28;20204;-60
2024/03/20 03:24:13;;;;;;;3.80;3.20;;;8.40;99.90;;;;;;5093770;28;20208;-61
2024/03/20 03:26:39;;;;;;;4.60;3.53;;;8.40;99.90;;;;;;5093678;28;20227;-63
2024/03/20 03:29:06;;;;;;;4.13;3.27;;;8.30;99.90;;;;;;5093595;28;20277;-62
2024/03/20 03:31:36;;;;;;;4.60;3.27;;;8.30;99.90;;;;;;5093611;28;20216;-61
2024/03/20 03:34:03;;;;;;;4.67;3.47;;;8.30;99.90;;;;;;5093334;28;20214;-63
2024/03/20 03:36:31;;;;;;;5.73;3.13;;;8.30;99.90;;;;;;5093368;28;20254;-62
2024/03/20 03:38:58;;;;;;;4.40;3.10;;;8.30;99.90;;;;;;5093414;28;20228;-62
2024/03/20 03:41:25;;;;;;;4.27;3.03;;;8.30;99.90;;;;;;5093437;28;20230;-62
2024/03/20 03:43:52;;;;;;;3.57;3.00;;;8.30;99.90;;;;;;5093379;28;20204;-62
2024/03/20 03:46:18;;;;;;;4.23;3.20;;;8.30;99.90;;;;;;5093152;28;20200;-62
2024/03/20 03:48:46;;;;;;;3.60;3.13;;;8.30;99.90;;;;;;5093099;28;20220;-60
2024/03/20 03:51:13;;;;;;;7.00;3.20;;;8.20;99.90;;;;;;5093399;28;20208;-62
2024/03/20 03:53:40;;;;;;;3.67;3.20;;;8.20;99.90;;;;;;5093403;28;20257;-62
2024/03/20 03:56:07;;;;;;;5.17;3.13;;;8.20;99.90;;;;;;5093351;28;20565;-62
2024/03/20 03:58:34;;;;;;;3.97;3.20;;;8.10;99.90;;;;;;5092763;28;20584;-62
2024/03/20 04:01:00;;;;;;;3.33;3.00;;;8.10;99.90;;;;;;5093260;28;20230;-59
2024/03/20 04:03:29;;;;;;;3.63;2.83;;;8.10;99.90;;;;;;5093033;28;20204;-58
2024/03/20 04:06:01;;;;;;;4.63;3.33;;;8.10;99.90;;;;;;5092882;28;20213;-59
2024/03/20 04:08:27;;;;;;;3.57;2.70;;;8.10;99.90;;;;;;5092818;28;20310;-59
2024/03/20 04:10:54;;;;;;;4.80;3.03;;;8.10;99.90;;;;;;5092902;28;20203;-58
2024/03/20 04:13:21;;;;;;;3.93;3.47;;;8.10;99.90;;;;;;5092768;28;20241;-58
2024/03/20 04:15:48;;;;;;;6.13;4.23;;;8.10;99.90;;;;;;5092220;28;20257;-58
2024/03/20 04:18:17;;;;;;;4.07;3.30;;;8.10;99.90;;;;;;5092726;28;20204;-58
2024/03/20 04:20:44;;;;;;;4.77;3.00;;;8.00;99.90;;;;;;5092693;28;20204;-59
2024/03/20 04:23:12;;;;;;;4.07;2.83;;;8.00;99.90;;;;;;5092629;28;20287;-58
2024/03/20 04:25:39;;;;;;;3.93;3.00;;;8.00;99.90;;;;;;5092300;28;20240;-58
2024/03/20 04:28:06;;;;;;;4.00;2.90;;;8.00;99.90;;;;;;5092425;28;20210;-60
2024/03/20 04:30:33;;;;;;;6.10;2.90;;;7.90;99.90;;;;;;5092517;28;20228;-58
2024/03/20 04:33:00;;;;;;;3.27;2.80;;;7.90;99.90;;;;;;5092457;28;20229;-59
2024/03/20 04:35:27;;;;;;;5.10;2.87;;;7.90;99.90;;;;;;5092235;28;20200;-58
2024/03/20 04:37:53;;;;;;;3.90;2.83;;;7.90;99.90;;;;;;5092494;28;20200;-58
2024/03/20 04:40:21;;;;;;;4.70;2.80;;;7.90;99.90;;;;;;5092128;28;20228;-60
2024/03/20 04:42:48;;;;;;;5.20;3.07;;;7.90;99.90;;;;;;5092243;28;20210;-60
2024/03/20 04:45:15;;;;;;;6.77;3.40;;;7.90;99.90;;;;;;5092485;28;20211;-57
2024/03/20 04:47:41;;;;;;;7.87;4.33;;;7.90;99.90;;;;;;5092299;28;20204;-58
2024/03/20 04:50:12;;;;;;;6.20;4.53;;;7.90;99.90;;;;;;5091898;28;20644;-59
2024/03/20 04:52:38;;;;;;;9.40;4.70;;;7.90;99.90;;;;;;5092089;28;20215;-58
2024/03/20 04:55:06;;;;;;;6.03;4.50;;;7.80;99.90;;;;;;5091867;28;20207;-57
2024/03/20 04:57:34;;;;;;;6.50;5.70;;;7.80;99.90;;;;;;5092036;28;20214;-58
2024/03/20 05:00:00;;;;;;;6.27;3.50;;;7.80;99.90;;;;;;5091311;28;20656;-58
2024/03/20 05:02:27;;;;;;;8.27;3.90;;;7.80;99.90;;;;;;5091283;28;20204;-59
2024/03/20 05:04:55;;;;;;;4.77;3.70;;;7.80;99.90;;;;;;5091149;28;20738;-57
2024/03/20 05:07:22;;;;;;;7.73;4.17;;;7.80;99.90;;;;;;5091031;28;20682;-57
2024/03/20 05:09:49;;;;;;;7.80;4.43;;;7.70;99.90;;;;;;5090798;28;20307;-57
2024/03/20 05:12:14;;;;;;;4.50;4.03;;;7.70;99.90;;;;;;5090959;28;20704;-59
2024/03/20 05:14:42;;;;;;;7.73;4.00;;;7.70;99.90;;;;;;5091169;28;20208;-57
2024/03/20 05:17:09;;;;;;;6.20;4.20;;;7.70;99.90;;;;;;5090845;28;20211;-58
2024/03/20 05:19:36;;;;;;;4.73;3.60;;;7.70;99.90;;;;;;5091057;28;20228;-58
2024/03/20 05:22:02;;;;;;;4.23;3.53;;;7.70;99.90;;;;;;5090869;28;20204;-58
2024/03/20 05:24:28;;;;;;;6.37;4.17;;;7.70;99.90;;;;;;5090857;28;20204;-58
2024/03/20 05:26:55;;;;;;;4.03;3.57;;;7.70;99.90;;;;;;5090861;28;20230;-59
2024/03/20 05:29:21;;;;;;;5.03;3.67;;;7.80;99.90;;;;;;5090869;28;20220;-58
2024/03/20 05:31:49;;;;;;;4.67;3.97;;;7.70;99.90;;;;;;5091717;28;20222;-58
2024/03/20 05:34:14;;;;;;;7.30;4.23;;;7.80;99.90;;;;;;5094575;28;20214;-58
2024/03/20 05:36:41;;;;;;;5.23;3.90;;;7.70;99.90;;;;;;5094148;28;20621;-60
2024/03/20 05:39:08;;;;;;;9.13;4.90;;;7.80;99.90;;;;;;5094118;28;20232;-58
2024/03/20 05:41:35;;;;;;;8.73;3.73;;;7.80;99.90;;;;;;5094466;28;20224;-59
2024/03/20 05:44:00;;;;;;;5.80;4.17;;;7.80;99.90;;;;;;5094468;28;20208;-60
2024/03/20 05:46:28;;;;;;;6.53;3.70;;;7.80;99.90;;;;;;5094065;28;20713;-60
2024/03/20 05:48:56;;;;;;;5.27;3.83;;;7.80;99.90;;;;;;5094221;28;20246;-59
2024/03/20 05:51:22;;;;;;;7.40;4.27;;;7.90;99.90;;;;;;5094342;28;20274;-59
2024/03/20 05:53:48;;;;;;;5.80;4.37;;;7.90;99.90;;;;;;5094193;28;20250;-57
2024/03/20 05:56:15;;;;;;;6.80;3.80;;;7.90;99.90;;;;;;5094882;28;20204;-59
2024/03/20 05:58:42;;;;;;;4.10;3.33;;;8.00;99.90;;;;;;5057594;28;1068205;-57
2024/03/20 06:01:10;;;;;;;5.17;3.77;;;8.00;99.90;;;;;;5096511;28;20261;-58
2024/03/20 06:03:36;;;;;;;6.73;3.73;;;8.10;99.90;;;;;;5096555;28;20234;-59
2024/03/20 06:06:04;;;;;;;7.03;3.50;;;8.10;99.90;;;;;;5094925;28;20261;-58
2024/03/20 06:08:31;;;;;;;6.63;4.23;;;8.20;99.90;;;;;;5095047;28;20293;-58
2024/03/20 06:10:58;;;;;;;4.53;3.73;;;8.20;99.90;;;;;;5095063;28;20204;-59
2024/03/20 06:13:25;;;;;;;6.53;3.30;;;8.30;99.90;;;;;;5095117;28;20211;-57
2024/03/20 06:15:51;;;;;;;6.07;3.97;;;8.30;99.90;;;;;;5094636;28;20200;-59
2024/03/20 06:18:17;;;;;;;7.87;4.20;;;8.50;99.90;;;;;;5094776;28;20214;-58
2024/03/20 06:20:43;;;;;;;6.37;3.80;;;8.50;99.90;;;;;;5094725;28;20235;-59
2024/03/20 06:23:11;;;;;;;8.07;4.37;;;8.60;99.90;;;;;;5095011;28;20207;-59
2024/03/20 06:25:37;;;;;;;6.10;4.20;;;8.70;99.90;;;;;;5094750;28;20204;-58
2024/03/20 06:28:04;;;;;;;5.20;3.50;;;8.80;99.90;;;;;;5094844;28;20211;-58
2024/03/20 06:30:30;;;;;;;6.77;3.50;;;9.20;99.90;;;;;;5094649;28;20307;-58
2024/03/20 06:32:57;;;;;;;8.73;3.37;;;9.80;99.90;;;;;;5094622;28;20623;-59
2024/03/20 06:35:28;;;;;;;4.73;3.50;;;10.60;99.90;;;;;;5094311;28;20743;-58
2024/03/20 06:37:55;;;;;;;5.93;3.50;;;11.30;99.90;;;;;;5094855;28;20658;-57
2024/03/20 06:40:22;;;;;;;5.27;3.17;;;12.00;99.90;;;;;;5094373;28;20231;-57
2024/03/20 06:42:50;;;;;;;7.70;3.53;;;12.60;99.90;;;;;;5093852;28;20227;-57
2024/03/20 06:45:15;;;;;;;6.10;3.20;;;13.00;99.90;;;;;;5094146;28;20211;-58
2024/03/20 06:47:43;;;;;;;4.33;3.17;;;13.30;99.90;;;;;;5094331;28;20283;-57
2024/03/20 06:50:10;;;;;;;6.07;3.27;;;13.90;99.90;;;;;;5094527;28;20373;-56
2024/03/20 06:52:38;;;;;;;6.57;3.57;;;14.50;99.90;;;;;;5094954;28;20203;-57
2024/03/20 06:55:07;;;;;;;5.93;3.00;;;15.00;99.90;;;;;;5094281;28;20334;-58
2024/03/20 06:57:35;;;;;;;8.17;3.30;;;15.80;99.90;;;;;;5094274;28;20674;-57
2024/03/20 07:00:03;;;;;;;6.23;3.27;;;16.80;99.90;;;;;;5093998;28;20250;-57
2024/03/20 07:02:29;;;;;;;5.53;3.75;;;17.60;99.90;;;;;;5094035;28;20238;-57
2024/03/20 07:04:55;;;;;;;4.80;3.38;;;18.50;99.90;;;;;;5094395;28;20302;-57
2024/03/20 07:07:22;;;;;;;4.72;2.85;;;19.40;99.90;;;;;;5093758;28;20295;-57
2024/03/20 07:09:48;;;;;;;4.18;3.05;;;20.10;99.90;;;;;;5093839;28;20231;-57
2024/03/20 07:12:14;;;;;;;7.78;3.47;;;20.50;99.90;;;;;;5093809;28;20203;-57
2024/03/20 07:14:41;;;;;;;4.07;3.22;;;20.40;99.90;;;;;;5093447;28;20622;-59
2024/03/20 07:17:08;;;;;;;7.82;3.10;;;20.50;99.90;;;;;;5093287;28;20205;-57
2024/03/20 07:19:34;;;;;;;4.07;3.22;;;20.50;99.90;;;;;;5093837;28;20262;-58
2024/03/20 07:22:00;;;;;;;5.03;3.40;;;20.80;99.90;;;;;;5093828;28;20662;-58
2024/03/20 07:24:26;;;;;;;4.80;3.03;;;21.20;99.90;;;;;;5093705;28;20705;-60
2024/03/20 07:26:53;;;;;;;3.45;2.78;;;21.40;99.90;;;;;;5093718;28;20196;-58
2024/03/20 07:29:19;;;;;;;4.95;3.35;;;21.70;99.90;;;;;;5093282;28;20728;-59
2024/03/20 07:31:47;;;;;;;7.03;3.80;;;21.90;99.90;;;;;;5093409;28;20200;-59
2024/03/20 07:34:13;;;;;;;5.82;3.47;;;21.80;99.90;;;;;;5093450;28;20299;-59
2024/03/20 07:36:40;;;;;;;4.43;3.35;;;21.90;99.90;;;;;;5093188;28;20197;-57
2024/03/20 07:39:08;;;;;;;5.65;3.88;;;21.90;99.90;;;;;;5093233;28;20264;-57
2024/03/20 07:41:34;;;;;;;4.63;3.60;;;22.10;99.90;;;;;;5093180;28;20291;-57
2024/03/20 07:44:00;;;;;;;7.10;4.78;;;22.20;99.90;;;;;;5092944;28;20674;-57
2024/03/20 07:46:27;;;;;;;4.25;3.70;;;22.40;99.90;;;;;;5093211;28;20208;-56
2024/03/20 07:48:54;;;;;;;4.68;3.53;;;22.80;99.80;;;;;;5093102;28;20224;-57
2024/03/20 07:51:21;;;;;;;6.13;4.10;;;23.50;99.80;;;;;;5093058;28;20204;-56
2024/03/20 07:53:47;;;;;;;4.30;3.90;;;24.30;98.20;;;;;;5092641;28;20208;-58
2024/03/20 07:56:14;;;;;;;4.80;3.95;;;24.80;96.20;;;;;;5092359;28;20227;-58
2024/03/20 07:58:41;;;;;;;4.50;3.65;;;24.50;95.60;;;;;;5092640;28;20327;-56
2024/03/20 08:01:11;;;;;;;4.97;3.67;;;23.80;95.50;;;;;;5092870;28;20307;-56
2024/03/20 08:03:37;;;;;;;5.88;3.90;;;22.70;96.70;;;;;;5093156;28;20208;-57
2024/03/20 08:06:05;;;;;;;6.35;4.03;;;21.60;97.50;;;;;;5092547;28;20268;-56
2024/03/20 08:08:31;;;;;;;5.25;3.92;;;20.20;99.00;;;;;;5092458;28;20578;-56
2024/03/20 08:10:57;;;;;;;5.70;3.30;;;19.30;99.90;;;;;;5092537;28;20192;-55
2024/03/20 08:13:24;;;;;;;7.45;3.85;;;18.60;99.90;;;;;;5092476;28;20215;-56
2024/03/20 08:15:50;;;;;;;5.85;4.07;;;18.10;99.90;;;;;;5092347;28;20211;-57
2024/03/20 08:18:16;;;;;;;6.47;4.57;;;17.90;99.90;;;;;;5092623;28;20212;-56
2024/03/20 08:20:43;;;;;;;6.68;4.28;;;17.60;99.90;;;;;;5092349;28;20227;-56
2024/03/20 08:23:10;;;;;;;6.43;4.22;;;17.40;99.90;;;;;;5092371;28;20212;-56
2024/03/20 08:25:37;;;;;;;4.78;3.85;;;17.30;99.90;;;;;;5092201;28;20257;-56
2024/03/20 08:28:04;;;;;;;7.82;3.58;;;17.20;99.90;;;;;;5092557;28;20555;-55
2024/03/20 08:30:32;;;;;;;6.20;3.63;;;17.10;99.90;;;;;;5092242;28;20212;-55
2024/03/20 08:32:58;;;;;;;5.80;3.53;;;16.90;99.90;;;;;;5092409;28;20200;-56
2024/03/20 08:35:25;;;;;;;5.53;3.85;;;16.80;99.90;;;;;;5092050;28;20207;-56
2024/03/20 08:37:50;;;;;;;4.80;3.75;;;16.80;99.90;;;;;;5092329;28;20215;-56
2024/03/20 08:40:19;;;;;;;4.50;3.97;;;16.80;99.90;;;;;;5091881;28;20228;-55
2024/03/20 08:42:46;;;;;;;5.82;5.22;;;16.80;99.90;;;;;;5092087;28;20212;-57
2024/03/20 08:45:13;;;;;;;7.50;3.67;;;16.70;99.90;;;;;;5091567;28;20196;-57
2024/03/20 08:47:39;;;;;;;4.80;3.92;;;16.80;99.90;;;;;;5091813;28;20673;-55
2024/03/20 08:50:08;;;;;;;4.80;3.60;;;16.80;99.90;;;;;;5092025;28;20231;-54
2024/03/20 08:52:33;;;;;;;6.22;3.50;;;16.80;99.90;;;;;;5091994;28;20208;-54
2024/03/20 08:55:00;;;;;;;7.43;3.90;;;16.80;99.90;;;;;;5091783;28;20249;-55
2024/03/20 08:57:27;;;;;;;6.28;3.22;;;16.90;99.90;;;;;;5092000;28;20208;-55
2024/03/20 08:59:54;;;;;;;3.47;3.15;;;16.90;99.90;;;;;;5091751;28;20228;-55
2024/03/20 09:02:19;;;;;;;5.00;2.90;;;17.00;99.90;;;;;;5091997;28;20666;-56
2024/03/20 09:04:46;;;;;;;4.00;3.30;;;17.00;99.90;;;;;;5091816;28;20657;-55
2024/03/20 09:07:12;;;;;;;4.35;3.08;;;17.20;99.90;;;;;;5090651;28;20674;-57
2024/03/20 09:09:38;;;;;;;5.38;2.90;;;17.40;99.90;;;;;;5091578;28;20231;-55
2024/03/20 09:12:05;;;;;;;5.10;3.63;;;17.50;99.90;;;;;;5091717;28;20678;-58
2024/03/20 09:14:34;;;;;;;3.38;2.78;;;17.60;99.90;;;;;;5091762;28;20299;-54
2024/03/20 09:17:00;;;;;;;7.03;3.28;;;17.70;99.90;;;;;;5091755;28;20577;-58
2024/03/20 09:19:27;;;;;;;4.07;3.15;;;17.80;99.90;;;;;;5091666;28;20220;-56
2024/03/20 09:21:52;;;;;;;4.18;3.08;;;17.90;99.90;;;;;;5091606;28;20208;-55
2024/03/20 09:24:22;;;;;;;3.05;2.50;;;18.10;99.90;;;;;;5091549;28;20736;-56
2024/03/20 09:26:49;;;;;;;3.67;2.70;;;18.20;99.90;;;;;;5091105;28;20212;-56
2024/03/20 09:29:16;;;;;;;4.80;2.65;;;18.30;99.90;;;;;;5091931;28;20224;-57
2024/03/20 09:31:43;;;;;;;3.33;2.28;;;18.60;99.90;;;;;;5091770;28;20208;-58
2024/03/20 09:34:10;;;;;;;4.53;2.38;;;18.70;99.90;;;;;;5091721;28;20220;-58
2024/03/20 09:36:35;;;;;;;3.22;2.05;;;18.80;99.90;;;;;;5091328;28;20208;-58
2024/03/20 09:39:03;;;;;;;3.35;2.40;;;18.90;99.90;;;;;;5091664;28;20232;-58
2024/03/20 09:41:31;;;;;;;3.88;2.33;;;18.90;99.90;;;;;;5091541;28;20224;-58
2024/03/20 09:43:59;;;;;;;4.20;2.20;;;19.00;99.90;;;;;;5091509;28;20671;-58
2024/03/20 09:46:26;;;;;;;2.90;2.20;;;18.90;99.90;;;;;;5091369;28;20215;-58
2024/03/20 09:48:55;;;;;;;4.32;2.10;;;18.90;99.90;;;;;;5091443;28;20220;-58
2024/03/20 09:51:20;;;;;;;2.60;1.90;;;19.00;99.90;;;;;;5091866;28;20200;-59
2024/03/20 09:53:50;;;;;;;3.17;2.30;;;19.10;99.90;;;;;;5091589;28;20610;-59
2024/03/20 09:56:17;;;;;;;3.13;2.10;;;19.20;99.90;;;;;;5091478;28;20204;-59
2024/03/20 09:58:44;;;;;;;3.90;2.10;;;19.20;99.90;;;;;;5091269;28;20223;-59
2024/03/20 10:01:14;;;;;;;3.38;2.25;;;19.20;99.90;;;;;;5075091;22;20581;-60
2024/03/20 10:03:41;;;;;;;4.15;2.10;;;19.20;99.90;;;;;;5039107;28;20289;-63
2024/03/20 10:06:08;;;;;;;3.33;2.00;;;19.20;99.90;;;;;;5047277;28;20203;-62
2024/03/20 10:08:37;;;;;;;3.95;2.00;;;19.10;99.90;;;;;;5039192;28;20210;-61
2024/03/20 10:11:03;;;;;;;2.70;1.90;;;19.00;99.90;;;;;;5041758;28;20237;-62
2024/03/20 10:13:30;;;;;;;3.13;1.90;;;19.10;99.90;;;;;;5042660;28;20209;-61
2024/03/20 10:16:07;;;;;;;2.45;1.70;;;19.40;99.90;;;;;;5040897;28;20229;-62
2024/03/20 10:18:34;;;;;;;5.93;2.10;;;19.50;99.90;;;;;;5041220;28;20748;-61
2024/03/20 10:20:59;;;;;;;2.17;1.63;;;19.70;99.90;;;;;;5044473;28;20707;-61
2024/03/20 10:23:27;;;;;;;7.65;1.65;;;19.90;99.90;;;;;;5046214;28;20229;-60
2024/03/20 10:25:57;;;;;;;3.88;2.05;;;20.10;99.90;;;;;;5044697;28;20217;-60
2024/03/20 10:28:26;;;;;;;3.33;1.77;;;20.30;99.90;;;;;;5042515;28;20230;-60
2024/03/20 10:30:52;;;;;;;3.42;1.90;;;20.40;99.70;;;;;;5043053;28;20591;-60
2024/03/20 10:33:20;;;;;;;7.65;2.00;;;20.50;99.70;;;;;;5046012;28;20288;-59
2024/03/20 10:35:50;;;;;;;4.60;1.52;;;20.60;99.40;;;;;;5045711;28;20202;-61
2024/03/20 10:38:19;;;;;;;1.90;1.33;;;20.70;98.90;;;;;;5042417;28;20198;-59
2024/03/20 10:40:48;;;;;;;3.50;1.98;;;20.70;98.80;;;;;;5042100;28;20226;-60
2024/03/20 10:43:18;;;;;;;2.42;1.42;;;20.80;99.00;;;;;;5034547;28;20288;-60
2024/03/20 10:45:45;;;;;;;4.15;1.48;;;21.00;98.50;;;;;;5042129;28;20210;-60
2024/03/20 10:48:16;;;;;;;2.78;1.25;;;21.20;97.80;;;;;;5034266;28;20195;-60
2024/03/20 10:50:43;;;;;;;1.85;1.35;;;21.40;97.80;;;;;;5042142;28;20276;-60
2024/03/20 10:53:10;;;;;;;3.35;1.30;;;21.50;97.20;;;;;;5045006;28;20229;-59
2024/03/20 10:55:37;;;;;;;2.20;1.48;;;21.60;96.60;;;;;;5044753;28;20301;-62
2024/03/20 10:58:05;;;;;;;1.98;1.23;;;21.50;96.20;;;;;;5043134;28;20671;-60
2024/03/20 11:00:31;;;;;;;2.67;1.55;;;21.30;95.70;;;;;;5041929;28;20606;-60
2024/03/20 11:02:58;;;;;;;2.42;1.40;;;21.00;96.00;;;;;;5043160;28;20233;-60
2024/03/20 11:05:36;;;;;;;2.20;1.48;;;20.90;96.70;;;;;;5044730;28;20217;-60
2024/03/20 11:08:06;;;;;;;2.10;1.33;;;20.90;97.20;;;;;;5040663;28;20198;-60
2024/03/20 11:10:32;;;;;;;4.70;1.70;;;21.00;97.60;;;;;;5044980;28;20232;-58
2024/03/20 11:12:59;;;;;;;3.05;1.40;;;21.00;97.70;;;;;;5043464;28;20206;-58
2024/03/20 11:15:28;;;;;;;3.58;1.63;;;21.10;98.50;;;;;;5041321;28;20702;-57
2024/03/20 11:17:55;;;;;;;3.00;1.80;;;20.90;97.50;;;;;;5042753;28;20210;-56
2024/03/20 11:20:43;;;;;;;3.15;2.40;;;20.70;97.80;;;;;;5044742;28;20217;-57
2024/03/20 11:23:22;;;;;;;2.67;1.30;;;20.80;97.80;;;;;;5035910;28;20194;-57
2024/03/20 11:25:48;;;;;;;4.28;1.40;;;21.10;97.50;;;;;;5041458;28;20298;-57
2024/03/20 11:28:15;;;;;;;2.92;1.50;;;21.50;96.90;;;;;;5045260;28;20232;-57
2024/03/20 11:30:42;;;;;;;4.07;1.20;;;21.90;96.80;;;;;;5044303;28;20577;-58
2024/03/20 11:33:10;;;;;;;2.88;1.38;;;22.20;95.80;;;;;;5041671;28;20214;-58
2024/03/20 11:35:37;;;;;;;1.58;1.20;;;22.40;95.50;;;;;;5041222;28;20232;-59
2024/03/20 11:38:05;;;;;;;1.83;1.25;;;22.40;94.40;;;;;;5043692;28;20212;-59
2024/03/20 11:40:31;;;;;;;2.22;1.40;;;22.00;93.90;;;;;;5044742;28;20308;-62
2024/03/20 11:42:58;;;;;;;1.40;1.25;;;21.80;94.60;;;;;;5043139;28;20201;-61
2024/03/20 11:45:24;;;;;;;2.78;1.50;;;21.90;94.80;;;;;;5040724;28;20261;-61
2024/03/20 11:47:53;;;;;;;4.00;1.80;;;21.90;94.20;;;;;;5041169;28;20202;-62
2024/03/20 11:50:19;;;;;;;2.25;1.20;;;22.00;93.90;;;;;;5044408;28;20267;-65
2024/03/20 11:52:46;;;;;;;2.92;1.40;;;22.00;93.50;;;;;;5044229;28;20201;-65
2024/03/20 11:55:13;;;;;;;2.90;1.30;;;22.10;93.40;;;;;;5040781;28;20208;-61
2024/03/20 11:57:41;;;;;;;2.50;1.63;;;22.40;92.60;;;;;;5040752;28;20202;-61
2024/03/20 12:00:11;;;;;;;2.63;1.70;;;22.60;92.80;;;;;;5043151;28;20226;-62
2024/03/20 12:02:38;;;;;;;12.73;1.88;;;22.80;92.90;;;;;;5044174;28;20210;-62
2024/03/20 12:05:09;;;;;;;2.58;1.20;;;22.90;93.20;;;;;;5041907;28;20213;-62
2024/03/20 12:07:36;;;;;;;4.03;1.40;;;23.00;92.90;;;;;;5040939;28;20206;-59
2024/03/20 12:10:03;;;;;;;2.45;1.40;;;22.90;93.20;;;;;;5041921;28;20234;-62
2024/03/20 12:12:30;;;;;;;2.83;1.50;;;22.90;93.20;;;;;;5043936;28;20627;-61
2024/03/20 12:14:56;;;;;;;3.03;1.20;;;23.10;92.80;;;;;;5042394;28;20258;-61
2024/03/20 12:17:23;;;;;;;1.38;1.27;;;23.30;92.10;;;;;;5040804;28;20229;-62
2024/03/20 12:19:50;;;;;;;1.67;1.23;;;23.20;90.60;;;;;;5040846;28;20226;-61
2024/03/20 12:22:19;;;;;;;1.13;1.02;;;23.00;91.20;;;;;;5045027;28;20270;-61
2024/03/20 12:24:46;;;;;;;2.67;1.10;;;23.00;90.80;;;;;;5043831;28;20237;-63
2024/03/20 12:27:14;;;;;;;1.48;1.13;;;23.00;90.90;;;;;;5040748;28;20205;-59
2024/03/20 12:29:40;;;;;;;2.03;0.85;;;23.00;90.50;;;;;;5040070;28;20234;-57
2024/03/20 12:32:08;;;;;;;2.25;1.10;;;23.00;90.40;;;;;;5042686;28;20198;-56
2024/03/20 12:34:34;;;;;;;4.10;1.40;;;23.10;90.20;;;;;;5043677;28;20212;-59
2024/03/20 12:37:01;;;;;;;1.58;0.90;;;23.10;89.60;;;;;;5042045;28;20197;-58
2024/03/20 12:39:30;;;;;;;5.38;1.38;;;23.20;88.90;;;;;;5040527;28;20312;-56
2024/03/20 12:41:57;;;;;;;2.00;1.23;;;23.20;89.70;;;;;;5040701;28;20667;-59
2024/03/20 12:44:23;;;;;;;2.20;1.20;;;23.10;89.90;;;;;;5044090;28;20584;-57
2024/03/20 12:46:50;;;;;;;1.95;1.10;;;22.90;89.40;;;;;;5043569;28;20209;-57
2024/03/20 12:49:16;;;;;;;1.42;0.88;;;22.60;90.30;;;;;;5031992;28;20301;-58